FranceFixed distance
La Grande Course des Templiers
24 Oct2004
Distance
68km
Finishers
1,4381,303 men135 women
Winning time
6:49:33h
Median pace
6.26km/h
Pace distribution
1,438 finishers · 4.79–9.96 km/h · mean 6.45
Every finisher ran the same 68 km course, so these paces are directly comparable.
Histogram of finisher pace. 1,438 finishers ranged from 4.79 to 9.96 kilometres per hour, with a mean of 6.45 and a median of 6.26. The busiest band is 6.0 to 6.5 kilometres per hour, with 327 finishers.
Results
Ranks 651–700 of 1,438
| Rank | Runner | Time | Pace | Cat. | Placing |
|---|---|---|---|---|---|
| 651 | Subtil, FlorentFranceMan | 10:35:55h | 6.42 | M45 | 619th M · 94th M45 |
| 652 | Miquel, PhilippeFranceMan | 10:36:02h | 6.42 | M35 | 620th M · 106th M35 |
| 653 | Auguste, GerardFranceMan | 10:37:10h | 6.40 | M50 | 621st M · 41st M50 |
| 654 | Maury, BernardFranceMan | 10:37:11h | 6.40 | — | 622nd M |
| 655 | Lepinois, PatriceFranceMan | 10:37:23h | 6.40 | — | 623rd M |
| 656 | Le Baron, AntoineFranceMan | 10:38:01h | 6.39 | M40 | 624th M · 136th M40 |
| 657 | Lalague, JeanFranceMan | 10:38:12h | 6.39 | M45 | 625th M · 95th M45 |
| 658 | Caltot, OlivierFranceMan | 10:38:36h | 6.39 | — | 626th M |
| 659 | Chauchet, DenisFranceMan | 10:38:53h | 6.39 | M40 | 627th M · 137th M40 |
| 660 | Del Pianta, RaphaelFranceMan | 10:39:19h | 6.38 | — | 628th M |
| 661 | Accerani, NadiaFranceWoman | 10:39:24h | 6.38 | W40 | 33rd F · 8th W40 |
| 662 | Batisse, PierreFranceMan | 10:39:25h | 6.38 | M50 | 629th M · 42nd M50 |
| 663 | Leborgne, MarcelFranceMan | 10:39:44h | 6.38 | M50 | 630th M · 43rd M50 |
| 664 | Joubel, AndreFranceMan | 10:39:55h | 6.38 | M45 | 631st M · 96th M45 |
| 665 | Richard, DanielFranceMan | 10:41:39h | 6.36 | M50 | 632nd M · 44th M50 |
| 666 | Cousin, Jean-FrancoisFranceMan | 10:42:31h | 6.35 | M35 | 633rd M · 107th M35 |
| 667 | Tran-Dang, EricFranceMan | 10:42:31h | 6.35 | M40 | 633rd M · 138th M40 |
| 668 | Malbosc, ClaudeFranceMan | 10:42:41h | 6.35 | M50 | 635th M · 45th M50 |
| 669 | Gilles, MatthieuFranceMan | 10:42:42h | 6.35 | M23 | 636th M · 121st M23 |
| 670 | Lang, Jean-MichelFranceMan | 10:42:45h | 6.35 | — | 637th M |
| 671 | Boucher, BrunoFranceMan | 10:42:46h | 6.35 | M40 | 638th M · 139th M40 |
| 672 | Chamouleau, JacquesFranceMan | 10:42:47h | 6.35 | — | 639th M |
| 673 | Latteux, CaroleFranceWoman | 10:43:11h | 6.34 | W23 | 34th F · 5th W23 |
| 674 | Latteux, VincentFranceMan | 10:43:11h | 6.34 | M23 | 640th M · 122nd M23 |
| 675 | Menu, ChristopheFranceMan | 10:43:12h | 6.34 | M23 | 641st M · 123rd M23 |
| 676 | Mathis, SylvieFranceWoman | 10:43:17h | 6.34 | W23 | 35th F · 6th W23 |
| 677 | Mabin, FredericFranceMan | 10:43:18h | 6.34 | — | 642nd M |
| 678 | Corniquet, LucFranceMan | 10:43:21h | 6.34 | — | 643rd M |
| 679 | Tusseau, FranckFranceMan | 10:43:22h | 6.34 | M23 | 644th M · 124th M23 |
| 680 | Agnel, FranckFranceMan | 10:43:22h | 6.34 | M23 | 644th M · 124th M23 |
| 681 | Berthe, Jean-PierreFranceMan | 10:43:23h | 6.34 | M45 | 646th M · 97th M45 |
| 682 | Vannier, NoelFranceMan | 10:43:24h | 6.34 | M40 | 647th M · 140th M40 |
| 683 | Reynaud, DominiqueFranceMan | 10:43:59h | 6.34 | M45 | 648th M · 98th M45 |
| 684 | Ridel, PatriceFranceMan | 10:44:21h | 6.33 | — | 649th M |
| 685 | Lhoste, PascalFranceMan | 10:44:59h | 6.33 | M40 | 650th M · 141st M40 |
| 686 | Merigot, EricFranceMan | 10:45:46h | 6.32 | M45 | 651st M · 99th M45 |
| 687 | Courtiade, LaurentFranceMan | 10:47:00h | 6.31 | M35 | 652nd M · 108th M35 |
| 688 | Haudegond, BertrandFranceMan | 10:47:01h | 6.31 | M35 | 653rd M · 109th M35 |
| 689 | Zimmermann, JacquesFranceMan | 10:47:29h | 6.30 | — | 654th M |
| 690 | Andrieux, Jean-MichelFranceMan | 10:47:30h | 6.30 | — | 655th M |
| 691 | Banos, FranckFranceMan | 10:47:34h | 6.30 | M45 | 656th M · 100th M45 |
| 692 | Chays, Pierre-YvesFranceMan | 10:47:38h | 6.30 | M55 | 657th M · 10th M55 |
| 693 | Queven Arich, LenaikFranceWoman | 10:47:42h | 6.30 | — | 36th F |
| 694 | Roth, PascalFranceMan | 10:47:44h | 6.30 | M40 | 658th M · 142nd M40 |
| 695 | Tremblais, PascalFranceMan | 10:47:49h | 6.30 | M23 | 659th M · 126th M23 |
| 696 | Dubois, JulienFranceMan | 10:47:51h | 6.30 | M23 | 660th M · 127th M23 |
| 697 | Gaucher, OlivierFranceMan | 10:47:52h | 6.30 | M23 | 661st M · 128th M23 |
| 698 | Gouin, StephaneFranceMan | 10:47:54h | 6.30 | M23 | 662nd M · 129th M23 |
| 699 | Gomez, HenryFranceMan | 10:47:57h | 6.30 | — | 663rd M |
| 700 | Jacques, FrancisFranceMan | 10:48:03h | 6.30 | M40 | 664th M · 143rd M40 |
- 651Subtil, FlorentFranceMan619th M · 94th M45Time10:35:55hPace6.42Cat.M45
- 652Miquel, PhilippeFranceMan620th M · 106th M35Time10:36:02hPace6.42Cat.M35
- 653Auguste, GerardFranceMan621st M · 41st M50Time10:37:10hPace6.40Cat.M50
- 654Maury, BernardFranceMan622nd MTime10:37:11hPace6.40
- 655Lepinois, PatriceFranceMan623rd MTime10:37:23hPace6.40
- 656Le Baron, AntoineFranceMan624th M · 136th M40Time10:38:01hPace6.39Cat.M40
- 657Lalague, JeanFranceMan625th M · 95th M45Time10:38:12hPace6.39Cat.M45
- 658Caltot, OlivierFranceMan626th MTime10:38:36hPace6.39
- 659Chauchet, DenisFranceMan627th M · 137th M40Time10:38:53hPace6.39Cat.M40
- 660Del Pianta, RaphaelFranceMan628th MTime10:39:19hPace6.38
- 661Accerani, NadiaFranceWoman33rd F · 8th W40Time10:39:24hPace6.38Cat.W40
- 662Batisse, PierreFranceMan629th M · 42nd M50Time10:39:25hPace6.38Cat.M50
- 663Leborgne, MarcelFranceMan630th M · 43rd M50Time10:39:44hPace6.38Cat.M50
- 664Joubel, AndreFranceMan631st M · 96th M45Time10:39:55hPace6.38Cat.M45
- 665Richard, DanielFranceMan632nd M · 44th M50Time10:41:39hPace6.36Cat.M50
- 666Cousin, Jean-FrancoisFranceMan633rd M · 107th M35Time10:42:31hPace6.35Cat.M35
- 667Tran-Dang, EricFranceMan633rd M · 138th M40Time10:42:31hPace6.35Cat.M40
- 668Malbosc, ClaudeFranceMan635th M · 45th M50Time10:42:41hPace6.35Cat.M50
- 669Gilles, MatthieuFranceMan636th M · 121st M23Time10:42:42hPace6.35Cat.M23
- 670Lang, Jean-MichelFranceMan637th MTime10:42:45hPace6.35
- 671Boucher, BrunoFranceMan638th M · 139th M40Time10:42:46hPace6.35Cat.M40
- 672Chamouleau, JacquesFranceMan639th MTime10:42:47hPace6.35
- 673Latteux, CaroleFranceWoman34th F · 5th W23Time10:43:11hPace6.34Cat.W23
- 674Latteux, VincentFranceMan640th M · 122nd M23Time10:43:11hPace6.34Cat.M23
- 675Menu, ChristopheFranceMan641st M · 123rd M23Time10:43:12hPace6.34Cat.M23
- 676Mathis, SylvieFranceWoman35th F · 6th W23Time10:43:17hPace6.34Cat.W23
- 677Mabin, FredericFranceMan642nd MTime10:43:18hPace6.34
- 678Corniquet, LucFranceMan643rd MTime10:43:21hPace6.34
- 679Tusseau, FranckFranceMan644th M · 124th M23Time10:43:22hPace6.34Cat.M23
- 680Agnel, FranckFranceMan644th M · 124th M23Time10:43:22hPace6.34Cat.M23
- 681Berthe, Jean-PierreFranceMan646th M · 97th M45Time10:43:23hPace6.34Cat.M45
- 682Vannier, NoelFranceMan647th M · 140th M40Time10:43:24hPace6.34Cat.M40
- 683Reynaud, DominiqueFranceMan648th M · 98th M45Time10:43:59hPace6.34Cat.M45
- 684Ridel, PatriceFranceMan649th MTime10:44:21hPace6.33
- 685Lhoste, PascalFranceMan650th M · 141st M40Time10:44:59hPace6.33Cat.M40
- 686Merigot, EricFranceMan651st M · 99th M45Time10:45:46hPace6.32Cat.M45
- 687Courtiade, LaurentFranceMan652nd M · 108th M35Time10:47:00hPace6.31Cat.M35
- 688Haudegond, BertrandFranceMan653rd M · 109th M35Time10:47:01hPace6.31Cat.M35
- 689Zimmermann, JacquesFranceMan654th MTime10:47:29hPace6.30
- 690Andrieux, Jean-MichelFranceMan655th MTime10:47:30hPace6.30
- 691Banos, FranckFranceMan656th M · 100th M45Time10:47:34hPace6.30Cat.M45
- 692Chays, Pierre-YvesFranceMan657th M · 10th M55Time10:47:38hPace6.30Cat.M55
- 693Queven Arich, LenaikFranceWoman36th FTime10:47:42hPace6.30
- 694Roth, PascalFranceMan658th M · 142nd M40Time10:47:44hPace6.30Cat.M40
- 695Tremblais, PascalFranceMan659th M · 126th M23Time10:47:49hPace6.30Cat.M23
- 696Dubois, JulienFranceMan660th M · 127th M23Time10:47:51hPace6.30Cat.M23
- 697Gaucher, OlivierFranceMan661st M · 128th M23Time10:47:52hPace6.30Cat.M23
- 698Gouin, StephaneFranceMan662nd M · 129th M23Time10:47:54hPace6.30Cat.M23
- 699Gomez, HenryFranceMan663rd MTime10:47:57hPace6.30
- 700Jacques, FrancisFranceMan664th M · 143rd M40Time10:48:03hPace6.30Cat.M40
Showing ranks 651–700 of 1,438